sensor_id;sensor_type;location;lat;lon;timestamp;pressure;altitude;pressure_sealevel;temperature;humidity
61898;BME280;47850;50.274;18.908;2023-05-29T00:02:23;98277.06;;;12.49;56.67
61898;BME280;47850;50.274;18.908;2023-05-29T00:04:51;98276.55;;;12.42;56.97
61898;BME280;47850;50.274;18.908;2023-05-29T00:07:18;98271.53;;;12.34;57.10
61898;BME280;47850;50.274;18.908;2023-05-29T00:09:46;98273.42;;;12.29;57.34
61898;BME280;47850;50.274;18.908;2023-05-29T00:12:14;98266.71;;;12.23;57.30
61898;BME280;47850;50.274;18.908;2023-05-29T00:14:42;98268.48;;;12.18;57.49
61898;BME280;47850;50.274;18.908;2023-05-29T00:17:10;98269.88;;;12.14;57.79
61898;BME280;47850;50.274;18.908;2023-05-29T00:19:40;98265.69;;;12.09;58.27
61898;BME280;47850;50.274;18.908;2023-05-29T00:22:08;98266.14;;;12.06;58.18
61898;BME280;47850;50.274;18.908;2023-05-29T00:24:35;98260.61;;;12.04;58.72
61898;BME280;47850;50.274;18.908;2023-05-29T00:27:04;98260.92;;;12.04;58.62
61898;BME280;47850;50.274;18.908;2023-05-29T00:29:31;98257.81;;;12.06;58.89
61898;BME280;47850;50.274;18.908;2023-05-29T00:31:59;98260.30;;;12.05;59.22
61898;BME280;47850;50.274;18.908;2023-05-29T00:34:27;98259.02;;;12.03;59.35
61898;BME280;47850;50.274;18.908;2023-05-29T00:36:55;98256.90;;;12.01;59.52
61898;BME280;47850;50.274;18.908;2023-05-29T00:39:23;98257.92;;;11.98;59.94
61898;BME280;47850;50.274;18.908;2023-05-29T00:41:51;98255.22;;;11.93;59.95
61898;BME280;47850;50.274;18.908;2023-05-29T00:44:19;98253.63;;;11.88;60.10
61898;BME280;47850;50.274;18.908;2023-05-29T00:46:52;98252.32;;;11.84;60.32
61898;BME280;47850;50.274;18.908;2023-05-29T00:49:22;98253.29;;;11.80;60.51
61898;BME280;47850;50.274;18.908;2023-05-29T00:51:51;98251.42;;;11.77;60.48
61898;BME280;47850;50.274;18.908;2023-05-29T00:54:26;98251.46;;;11.76;60.54
61898;BME280;47850;50.274;18.908;2023-05-29T00:56:59;98251.33;;;11.74;60.72
61898;BME280;47850;50.274;18.908;2023-05-29T00:59:31;98251.67;;;11.72;61.02
61898;BME280;47850;50.274;18.908;2023-05-29T01:01:59;98251.27;;;11.66;61.51
61898;BME280;47850;50.274;18.908;2023-05-29T01:04:28;98253.89;;;11.59;61.80
61898;BME280;47850;50.274;18.908;2023-05-29T01:06:56;98251.42;;;11.53;61.90
61898;BME280;47850;50.274;18.908;2023-05-29T01:09:24;98251.71;;;11.47;62.02
61898;BME280;47850;50.274;18.908;2023-05-29T01:12:03;98250.46;;;11.44;62.25
61898;BME280;47850;50.274;18.908;2023-05-29T01:22:56;98246.88;;;11.34;62.50
61898;BME280;47850;50.274;18.908;2023-05-29T01:25:46;98251.15;;;11.32;62.52
61898;BME280;47850;50.274;18.908;2023-05-29T01:28:20;98250.91;;;11.31;62.36
61898;BME280;47850;50.274;18.908;2023-05-29T01:30:49;98251.89;;;11.31;62.32
61898;BME280;47850;50.274;18.908;2023-05-29T01:33:18;98246.30;;;11.32;62.32
61898;BME280;47850;50.274;18.908;2023-05-29T01:35:46;98244.46;;;11.31;62.48
61898;BME280;47850;50.274;18.908;2023-05-29T01:38:14;98245.83;;;11.31;62.69
61898;BME280;47850;50.274;18.908;2023-05-29T01:40:42;98242.42;;;11.32;62.43
61898;BME280;47850;50.274;18.908;2023-05-29T01:43:10;98243.87;;;11.33;62.44
61898;BME280;47850;50.274;18.908;2023-05-29T01:45:38;98239.40;;;11.33;62.55
61898;BME280;47850;50.274;18.908;2023-05-29T01:48:08;98248.23;;;11.33;62.44
61898;BME280;47850;50.274;18.908;2023-05-29T01:50:36;98245.63;;;11.32;62.40
61898;BME280;47850;50.274;18.908;2023-05-29T01:53:05;98243.38;;;11.31;62.59
61898;BME280;47850;50.274;18.908;2023-05-29T01:55:32;98241.36;;;11.30;62.82
61898;BME280;47850;50.274;18.908;2023-05-29T01:58:01;98239.98;;;11.27;62.67
61898;BME280;47850;50.274;18.908;2023-05-29T02:00:29;98239.66;;;11.25;62.78
61898;BME280;47850;50.274;18.908;2023-05-29T02:02:57;98236.93;;;11.23;62.96
61898;BME280;47850;50.274;18.908;2023-05-29T02:05:25;98229.35;;;11.21;63.13
61898;BME280;47850;50.274;18.908;2023-05-29T02:07:53;98227.98;;;11.22;62.99
61898;BME280;47850;50.274;18.908;2023-05-29T02:10:21;98230.80;;;11.20;62.95
61898;BME280;47850;50.274;18.908;2023-05-29T02:12:49;98227.13;;;11.16;62.84
61898;BME280;47850;50.274;18.908;2023-05-29T02:15:17;98226.56;;;11.16;63.13
61898;BME280;47850;50.274;18.908;2023-05-29T02:17:44;98225.08;;;11.16;63.28
61898;BME280;47850;50.274;18.908;2023-05-29T02:20:12;98222.09;;;11.17;63.39
61898;BME280;47850;50.274;18.908;2023-05-29T02:22:40;98223.98;;;11.18;63.45
61898;BME280;47850;50.274;18.908;2023-05-29T02:25:08;98220.75;;;11.18;63.28
61898;BME280;47850;50.274;18.908;2023-05-29T02:27:36;98228.16;;;11.18;63.28
61898;BME280;47850;50.274;18.908;2023-05-29T02:30:04;98227.94;;;11.19;63.23
61898;BME280;47850;50.274;18.908;2023-05-29T02:32:32;98224.05;;;11.17;63.42
61898;BME280;47850;50.274;18.908;2023-05-29T02:35:00;98223.95;;;11.17;63.35
61898;BME280;47850;50.274;18.908;2023-05-29T02:37:28;98223.29;;;11.16;63.37
61898;BME280;47850;50.274;18.908;2023-05-29T02:39:56;98223.13;;;11.16;63.59
61898;BME280;47850;50.274;18.908;2023-05-29T02:42:24;98225.52;;;11.16;63.42
61898;BME280;47850;50.274;18.908;2023-05-29T02:44:52;98221.64;;;11.16;63.58
61898;BME280;47850;50.274;18.908;2023-05-29T02:47:20;98219.84;;;11.14;63.85
61898;BME280;47850;50.274;18.908;2023-05-29T02:49:47;98215.77;;;11.12;63.94
61898;BME280;47850;50.274;18.908;2023-05-29T02:52:15;98214.67;;;11.08;64.30
61898;BME280;47850;50.274;18.908;2023-05-29T02:54:43;98209.55;;;11.03;64.38
61898;BME280;47850;50.274;18.908;2023-05-29T02:57:11;98211.83;;;10.98;64.32
61898;BME280;47850;50.274;18.908;2023-05-29T02:59:38;98208.00;;;10.96;64.49
61898;BME280;47850;50.274;18.908;2023-05-29T03:02:06;98207.10;;;10.96;64.83
61898;BME280;47850;50.274;18.908;2023-05-29T03:04:34;98207.64;;;10.96;64.73
61898;BME280;47850;50.274;18.908;2023-05-29T03:07:02;98209.58;;;10.97;64.86
61898;BME280;47850;50.274;18.908;2023-05-29T03:09:30;98208.27;;;10.99;64.73
61898;BME280;47850;50.274;18.908;2023-05-29T03:11:58;98208.74;;;11.01;64.67
61898;BME280;47850;50.274;18.908;2023-05-29T03:14:28;98209.90;;;11.02;64.67
61898;BME280;47850;50.274;18.908;2023-05-29T03:16:56;98208.36;;;11.03;64.61
61898;BME280;47850;50.274;18.908;2023-05-29T03:19:24;98211.34;;;11.04;64.90
61898;BME280;47850;50.274;18.908;2023-05-29T03:21:51;98212.70;;;11.00;65.49
61898;BME280;47850;50.274;18.908;2023-05-29T03:24:20;98210.60;;;10.95;66.02
61898;BME280;47850;50.274;18.908;2023-05-29T03:26:48;98207.63;;;10.92;66.27
61898;BME280;47850;50.274;18.908;2023-05-29T03:29:16;98209.29;;;10.90;66.38
61898;BME280;47850;50.274;18.908;2023-05-29T03:31:44;98211.66;;;10.93;66.13
61898;BME280;47850;50.274;18.908;2023-05-29T03:34:12;98211.21;;;10.97;65.93
61898;BME280;47850;50.274;18.908;2023-05-29T03:36:41;98214.20;;;10.99;66.23
61898;BME280;47850;50.274;18.908;2023-05-29T03:39:08;98213.88;;;10.97;66.82
61898;BME280;47850;50.274;18.908;2023-05-29T03:41:36;98215.06;;;10.96;66.85
61898;BME280;47850;50.274;18.908;2023-05-29T03:44:04;98215.38;;;10.96;66.94
61898;BME280;47850;50.274;18.908;2023-05-29T03:46:32;98217.64;;;10.97;66.80
61898;BME280;47850;50.274;18.908;2023-05-29T03:49:00;98218.95;;;11.00;66.63
61898;BME280;47850;50.274;18.908;2023-05-29T03:51:27;98215.09;;;11.04;66.59
61898;BME280;47850;50.274;18.908;2023-05-29T03:53:55;98216.00;;;11.06;66.78
61898;BME280;47850;50.274;18.908;2023-05-29T03:56:23;98216.98;;;11.10;67.23
61898;BME280;47850;50.274;18.908;2023-05-29T03:58:51;98221.98;;;11.11;67.21
61898;BME280;47850;50.274;18.908;2023-05-29T04:01:19;98218.21;;;11.12;67.49
61898;BME280;47850;50.274;18.908;2023-05-29T04:03:47;98221.98;;;11.12;67.62
61898;BME280;47850;50.274;18.908;2023-05-29T04:06:15;98220.13;;;11.14;67.82
61898;BME280;47850;50.274;18.908;2023-05-29T04:08:43;98223.31;;;11.15;67.96
61898;BME280;47850;50.274;18.908;2023-05-29T04:11:11;98220.04;;;11.17;68.16
61898;BME280;47850;50.274;18.908;2023-05-29T04:13:39;98222.16;;;11.19;68.11
61898;BME280;47850;50.274;18.908;2023-05-29T04:16:08;98222.19;;;11.23;67.98
61898;BME280;47850;50.274;18.908;2023-05-29T04:18:35;98224.56;;;11.27;68.06
61898;BME280;47850;50.274;18.908;2023-05-29T04:21:03;98231.36;;;11.31;67.86
61898;BME280;47850;50.274;18.908;2023-05-29T04:23:31;98230.88;;;11.37;67.87
61898;BME280;47850;50.274;18.908;2023-05-29T04:25:59;98232.67;;;11.42;67.73
61898;BME280;47850;50.274;18.908;2023-05-29T04:28:29;98234.85;;;11.45;67.91
61898;BME280;47850;50.274;18.908;2023-05-29T04:30:57;98235.84;;;11.46;68.16
61898;BME280;47850;50.274;18.908;2023-05-29T04:33:25;98230.73;;;11.51;68.29
61898;BME280;47850;50.274;18.908;2023-05-29T04:35:53;98233.07;;;11.56;68.32
61898;BME280;47850;50.274;18.908;2023-05-29T04:38:21;98235.38;;;11.61;68.37
61898;BME280;47850;50.274;18.908;2023-05-29T04:40:53;98233.52;;;11.63;68.47
61898;BME280;47850;50.274;18.908;2023-05-29T04:43:25;98237.73;;;11.69;68.42
61898;BME280;47850;50.274;18.908;2023-05-29T04:45:56;98236.81;;;11.75;68.34
61898;BME280;47850;50.274;18.908;2023-05-29T04:48:23;98245.11;;;11.83;68.23
61898;BME280;47850;50.274;18.908;2023-05-29T04:50:52;98247.23;;;11.92;67.97
61898;BME280;47850;50.274;18.908;2023-05-29T04:53:20;98250.70;;;12.00;67.76
61898;BME280;47850;50.274;18.908;2023-05-29T04:55:48;98252.98;;;12.08;67.38
61898;BME280;47850;50.274;18.908;2023-05-29T04:58:15;98259.80;;;12.16;67.30
61898;BME280;47850;50.274;18.908;2023-05-29T05:00:43;98264.10;;;12.26;67.17
61898;BME280;47850;50.274;18.908;2023-05-29T05:03:11;98263.42;;;12.36;66.86
61898;BME280;47850;50.274;18.908;2023-05-29T05:05:39;98269.73;;;12.46;66.39
61898;BME280;47850;50.274;18.908;2023-05-29T05:08:06;98273.77;;;12.57;66.27
61898;BME280;47850;50.274;18.908;2023-05-29T05:10:34;98269.56;;;12.68;66.13
61898;BME280;47850;50.274;18.908;2023-05-29T05:13:02;98270.73;;;12.77;65.83
61898;BME280;47850;50.274;18.908;2023-05-29T05:15:30;98266.80;;;12.85;65.62
61898;BME280;47850;50.274;18.908;2023-05-29T05:17:58;98266.33;;;12.95;65.53
61898;BME280;47850;50.274;18.908;2023-05-29T05:20:26;98267.27;;;13.04;65.57
61898;BME280;47850;50.274;18.908;2023-05-29T05:22:53;98263.36;;;13.12;65.34
61898;BME280;47850;50.274;18.908;2023-05-29T05:25:23;98265.02;;;13.21;65.01
61898;BME280;47850;50.274;18.908;2023-05-29T05:27:51;98262.25;;;13.29;64.68
61898;BME280;47850;50.274;18.908;2023-05-29T05:30:19;98266.84;;;13.36;64.66
61898;BME280;47850;50.274;18.908;2023-05-29T05:32:46;98263.89;;;13.43;64.23
61898;BME280;47850;50.274;18.908;2023-05-29T05:35:14;98263.88;;;13.49;63.72
61898;BME280;47850;50.274;18.908;2023-05-29T05:37:42;98266.48;;;13.56;63.69
61898;BME280;47850;50.274;18.908;2023-05-29T05:40:10;98267.03;;;13.63;62.39
61898;BME280;47850;50.274;18.908;2023-05-29T05:42:38;98269.65;;;13.69;61.77
61898;BME280;47850;50.274;18.908;2023-05-29T05:45:06;98273.30;;;13.77;61.70
61898;BME280;47850;50.274;18.908;2023-05-29T05:47:34;98272.14;;;13.86;61.31
61898;BME280;47850;50.274;18.908;2023-05-29T05:50:02;98274.55;;;13.95;60.97
61898;BME280;47850;50.274;18.908;2023-05-29T05:52:30;98272.56;;;14.04;60.72
61898;BME280;47850;50.274;18.908;2023-05-29T05:55:00;98268.47;;;14.14;60.70
61898;BME280;47850;50.274;18.908;2023-05-29T05:57:27;98271.20;;;14.26;60.80
61898;BME280;47850;50.274;18.908;2023-05-29T05:59:55;98270.76;;;14.34;60.61
61898;BME280;47850;50.274;18.908;2023-05-29T06:02:23;98274.43;;;14.43;60.57
61898;BME280;47850;50.274;18.908;2023-05-29T06:04:51;98271.59;;;14.53;60.48
61898;BME280;47850;50.274;18.908;2023-05-29T06:07:19;98274.24;;;14.63;60.25
61898;BME280;47850;50.274;18.908;2023-05-29T06:09:48;98274.11;;;14.72;59.80
61898;BME280;47850;50.274;18.908;2023-05-29T06:12:16;98275.04;;;14.82;59.45
61898;BME280;47850;50.274;18.908;2023-05-29T06:14:44;98277.67;;;14.92;59.16
61898;BME280;47850;50.274;18.908;2023-05-29T06:17:12;98277.92;;;14.99;58.92
61898;BME280;47850;50.274;18.908;2023-05-29T06:19:40;98280.54;;;15.08;58.54
61898;BME280;47850;50.274;18.908;2023-05-29T06:22:08;98287.00;;;15.17;58.52
61898;BME280;47850;50.274;18.908;2023-05-29T06:24:36;98289.39;;;15.27;58.07
61898;BME280;47850;50.274;18.908;2023-05-29T06:27:04;98296.94;;;15.36;57.67
61898;BME280;47850;50.274;18.908;2023-05-29T06:29:33;98294.66;;;15.43;56.93
61898;BME280;47850;50.274;18.908;2023-05-29T06:32:01;98298.17;;;15.51;56.46
61898;BME280;47850;50.274;18.908;2023-05-29T06:34:29;98298.77;;;15.58;55.84
61898;BME280;47850;50.274;18.908;2023-05-29T06:36:56;98301.95;;;15.65;55.03
61898;BME280;47850;50.274;18.908;2023-05-29T06:39:24;98302.35;;;15.72;54.47
61898;BME280;47850;50.274;18.908;2023-05-29T06:41:52;98305.86;;;15.79;54.15
61898;BME280;47850;50.274;18.908;2023-05-29T06:44:20;98308.23;;;15.88;54.43
61898;BME280;47850;50.274;18.908;2023-05-29T06:46:48;98306.23;;;15.98;54.30
61898;BME280;47850;50.274;18.908;2023-05-29T06:49:16;98308.94;;;16.05;53.46
61898;BME280;47850;50.274;18.908;2023-05-29T06:51:44;98308.36;;;16.13;53.42
61898;BME280;47850;50.274;18.908;2023-05-29T06:54:12;98314.41;;;16.22;52.65
61898;BME280;47850;50.274;18.908;2023-05-29T06:56:41;98313.98;;;16.31;51.91
61898;BME280;47850;50.274;18.908;2023-05-29T06:59:09;98314.55;;;16.40;51.85
61898;BME280;47850;50.274;18.908;2023-05-29T07:01:37;98316.91;;;16.50;51.34
61898;BME280;47850;50.274;18.908;2023-05-29T07:04:05;98320.80;;;16.61;51.47
61898;BME280;47850;50.274;18.908;2023-05-29T07:06:34;98320.70;;;16.70;50.87
61898;BME280;47850;50.274;18.908;2023-05-29T07:09:03;98322.16;;;16.79;49.54
61898;BME280;47850;50.274;18.908;2023-05-29T07:11:31;98319.66;;;16.86;49.27
61898;BME280;47850;50.274;18.908;2023-05-29T07:13:59;98319.75;;;16.96;49.88
61898;BME280;47850;50.274;18.908;2023-05-29T07:16:27;98323.35;;;17.04;48.79
61898;BME280;47850;50.274;18.908;2023-05-29T07:18:54;98326.30;;;17.11;48.13
61898;BME280;47850;50.274;18.908;2023-05-29T07:21:22;98330.52;;;17.15;47.52
61898;BME280;47850;50.274;18.908;2023-05-29T07:23:50;98326.05;;;17.20;47.48
61898;BME280;47850;50.274;18.908;2023-05-29T07:26:18;98330.66;;;17.26;47.82
61898;BME280;47850;50.274;18.908;2023-05-29T07:28:46;98334.58;;;17.32;47.49
61898;BME280;47850;50.274;18.908;2023-05-29T07:31:14;98329.64;;;17.37;47.35
61898;BME280;47850;50.274;18.908;2023-05-29T07:33:41;98324.73;;;17.43;47.64
61898;BME280;47850;50.274;18.908;2023-05-29T07:36:09;98325.13;;;17.51;47.77
61898;BME280;47850;50.274;18.908;2023-05-29T07:38:38;98325.05;;;17.58;47.45
61898;BME280;47850;50.274;18.908;2023-05-29T07:41:06;98323.08;;;17.66;47.08
61898;BME280;47850;50.274;18.908;2023-05-29T07:43:34;98326.46;;;17.74;46.72
61898;BME280;47850;50.274;18.908;2023-05-29T07:46:03;98326.06;;;17.82;46.77
61898;BME280;47850;50.274;18.908;2023-05-29T07:48:31;98331.05;;;17.91;46.81
61898;BME280;47850;50.274;18.908;2023-05-29T07:50:58;98331.07;;;17.99;47.00
61898;BME280;47850;50.274;18.908;2023-05-29T07:53:26;98331.96;;;18.09;46.10
61898;BME280;47850;50.274;18.908;2023-05-29T07:55:54;98333.55;;;18.18;45.67
61898;BME280;47850;50.274;18.908;2023-05-29T07:58:22;98333.02;;;18.24;45.51
61898;BME280;47850;50.274;18.908;2023-05-29T08:00:50;98335.00;;;18.28;45.45
61898;BME280;47850;50.274;18.908;2023-05-29T08:03:18;98334.89;;;18.35;45.15
61898;BME280;47850;50.274;18.908;2023-05-29T08:05:46;98340.69;;;18.42;44.84
61898;BME280;47850;50.274;18.908;2023-05-29T08:08:14;98341.23;;;18.51;44.99
61898;BME280;47850;50.274;18.908;2023-05-29T08:10:49;98341.54;;;18.60;45.07
61898;BME280;47850;50.274;18.908;2023-05-29T08:13:24;98338.73;;;18.72;45.27
61898;BME280;47850;50.274;18.908;2023-05-29T08:15:56;98339.59;;;18.86;44.21
61898;BME280;47850;50.274;18.908;2023-05-29T08:18:31;98341.19;;;18.95;43.25
61898;BME280;47850;50.274;18.908;2023-05-29T08:21:22;98339.38;;;19.07;43.42
61898;BME280;47850;50.274;18.908;2023-05-29T08:24:02;98340.05;;;19.20;43.83
61898;BME280;47850;50.274;18.908;2023-05-29T08:26:34;98341.07;;;19.32;43.36
61898;BME280;47850;50.274;18.908;2023-05-29T08:29:06;98342.00;;;19.42;42.24
61898;BME280;47850;50.274;18.908;2023-05-29T08:32:00;98339.77;;;19.52;42.17
61898;BME280;47850;50.274;18.908;2023-05-29T08:34:35;98341.69;;;19.60;39.88
61898;BME280;47850;50.274;18.908;2023-05-29T08:37:12;98342.07;;;19.65;39.91
61898;BME280;47850;50.274;18.908;2023-05-29T08:39:52;98345.83;;;19.69;39.42
61898;BME280;47850;50.274;18.908;2023-05-29T08:42:26;98341.71;;;19.75;40.00
61898;BME280;47850;50.274;18.908;2023-05-29T08:45:06;98343.25;;;19.83;39.29
61898;BME280;47850;50.274;18.908;2023-05-29T08:47:42;98341.23;;;19.86;38.97
61898;BME280;47850;50.274;18.908;2023-05-29T08:50:10;98346.20;;;19.92;38.85
61898;BME280;47850;50.274;18.908;2023-05-29T08:52:46;98342.54;;;20.03;39.49
61898;BME280;47850;50.274;18.908;2023-05-29T08:55:20;98343.30;;;20.16;39.66
61898;BME280;47850;50.274;18.908;2023-05-29T08:57:53;98346.86;;;20.23;39.42
61898;BME280;47850;50.274;18.908;2023-05-29T09:00:30;98340.15;;;20.25;38.50
61898;BME280;47850;50.274;18.908;2023-05-29T09:03:03;98341.92;;;20.28;38.22
61898;BME280;47850;50.274;18.908;2023-05-29T09:05:39;98339.86;;;20.35;38.11
61898;BME280;47850;50.274;18.908;2023-05-29T09:08:11;98340.20;;;20.36;37.53
61898;BME280;47850;50.274;18.908;2023-05-29T09:10:50;98340.13;;;20.38;37.41
61898;BME280;47850;50.274;18.908;2023-05-29T09:13:21;98338.00;;;20.47;37.76
61898;BME280;47850;50.274;18.908;2023-05-29T09:16:00;98336.18;;;20.58;37.45
61898;BME280;47850;50.274;18.908;2023-05-29T09:18:31;98334.23;;;20.70;36.77
61898;BME280;47850;50.274;18.908;2023-05-29T09:21:25;98342.05;;;20.75;36.34
61898;BME280;47850;50.274;18.908;2023-05-29T09:24:03;98340.67;;;20.73;36.06
61898;BME280;47850;50.274;18.908;2023-05-29T09:26:32;98340.29;;;20.73;36.38
61898;BME280;47850;50.274;18.908;2023-05-29T09:29:19;98336.91;;;20.85;36.32
61898;BME280;47850;50.274;18.908;2023-05-29T09:31:55;98334.80;;;20.88;35.63
61898;BME280;47850;50.274;18.908;2023-05-29T09:34:48;98337.41;;;20.88;36.04
61898;BME280;47850;50.274;18.908;2023-05-29T09:37:20;98340.52;;;21.02;35.90
61898;BME280;47850;50.274;18.908;2023-05-29T09:39:53;98343.50;;;21.10;35.70
61898;BME280;47850;50.274;18.908;2023-05-29T09:42:24;98344.88;;;21.16;35.78
61898;BME280;47850;50.274;18.908;2023-05-29T09:44:55;98343.25;;;21.20;34.90
61898;BME280;47850;50.274;18.908;2023-05-29T09:47:33;98339.75;;;21.19;35.01
61898;BME280;47850;50.274;18.908;2023-05-29T09:50:02;98337.08;;;21.21;34.63
61898;BME280;47850;50.274;18.908;2023-05-29T09:52:33;98333.65;;;21.31;35.55
61898;BME280;47850;50.274;18.908;2023-05-29T09:55:09;98334.37;;;21.47;34.67
61898;BME280;47850;50.274;18.908;2023-05-29T09:57:38;98335.95;;;21.58;34.45
61898;BME280;47850;50.274;18.908;2023-05-29T10:00:08;98340.60;;;21.72;35.11
61898;BME280;47850;50.274;18.908;2023-05-29T10:02:43;98343.46;;;21.89;34.66
61898;BME280;47850;50.274;18.908;2023-05-29T10:05:23;98336.64;;;21.92;34.08
61898;BME280;47850;50.274;18.908;2023-05-29T10:07:53;98339.67;;;21.97;34.11
61898;BME280;47850;50.274;18.908;2023-05-29T10:10:24;98337.73;;;22.08;33.32
61898;BME280;47850;50.274;18.908;2023-05-29T10:12:55;98342.20;;;22.20;33.66
61898;BME280;47850;50.274;18.908;2023-05-29T10:15:26;98336.81;;;22.33;33.59
61898;BME280;47850;50.274;18.908;2023-05-29T10:18:02;98335.91;;;22.45;33.34
61898;BME280;47850;50.274;18.908;2023-05-29T10:20:33;98338.07;;;22.61;33.30
61898;BME280;47850;50.274;18.908;2023-05-29T10:23:03;98338.95;;;22.74;32.71
61898;BME280;47850;50.274;18.908;2023-05-29T10:25:33;98341.33;;;22.84;32.38
61898;BME280;47850;50.274;18.908;2023-05-29T10:28:04;98344.65;;;23.00;32.18
61898;BME280;47850;50.274;18.908;2023-05-29T10:30:45;98341.23;;;23.17;31.94
61898;BME280;47850;50.274;18.908;2023-05-29T10:33:47;98343.81;;;23.31;31.40
61898;BME280;47850;50.274;18.908;2023-05-29T10:36:22;98339.99;;;23.38;31.36
61898;BME280;47850;50.274;18.908;2023-05-29T10:38:52;98337.67;;;23.47;30.97
61898;BME280;47850;50.274;18.908;2023-05-29T10:43:55;98336.80;;;23.68;30.22
61898;BME280;47850;50.274;18.908;2023-05-29T10:49:17;98335.06;;;23.83;29.61
61898;BME280;47850;50.274;18.908;2023-05-29T10:51:46;98332.96;;;23.92;29.20
61898;BME280;47850;50.274;18.908;2023-05-29T10:54:15;98330.55;;;24.01;29.67
61898;BME280;47850;50.274;18.908;2023-05-29T10:56:52;98333.15;;;24.20;29.64
61898;BME280;47850;50.274;18.908;2023-05-29T10:59:20;98336.17;;;24.33;29.35
61898;BME280;47850;50.274;18.908;2023-05-29T11:01:51;98326.57;;;24.39;29.08
61898;BME280;47850;50.274;18.908;2023-05-29T11:06:48;98316.66;;;24.66;29.43
61898;BME280;47850;50.274;18.908;2023-05-29T11:12:22;98319.14;;;24.94;28.01
61898;BME280;47850;50.274;18.908;2023-05-29T11:15:06;98313.33;;;24.94;27.83
61898;BME280;47850;50.274;18.908;2023-05-29T11:25:28;98311.36;;;25.39;27.29
61898;BME280;47850;50.274;18.908;2023-05-29T11:27:56;98314.61;;;25.62;26.68
61898;BME280;47850;50.274;18.908;2023-05-29T11:30:25;98317.19;;;25.80;27.02
61898;BME280;47850;50.274;18.908;2023-05-29T11:32:53;98319.64;;;25.94;26.63
61898;BME280;47850;50.274;18.908;2023-05-29T11:35:22;98318.23;;;26.03;25.71
61898;BME280;47850;50.274;18.908;2023-05-29T11:37:51;98321.30;;;26.20;25.89
61898;BME280;47850;50.274;18.908;2023-05-29T11:40:18;98320.82;;;26.46;26.49
61898;BME280;47850;50.274;18.908;2023-05-29T11:42:46;98319.70;;;26.77;26.03
61898;BME280;47850;50.274;18.908;2023-05-29T11:45:20;98321.15;;;27.14;25.89
61898;BME280;47850;50.274;18.908;2023-05-29T11:47:54;98323.55;;;27.32;25.73
61898;BME280;47850;50.274;18.908;2023-05-29T11:50:25;98318.59;;;27.49;25.72
61898;BME280;47850;50.274;18.908;2023-05-29T11:52:54;98309.15;;;27.69;25.31
61898;BME280;47850;50.274;18.908;2023-05-29T11:55:24;98307.33;;;28.03;25.64
61898;BME280;47850;50.274;18.908;2023-05-29T11:57:57;98304.34;;;28.36;24.78
61898;BME280;47850;50.274;18.908;2023-05-29T12:00:39;98302.92;;;28.58;24.22
61898;BME280;47850;50.274;18.908;2023-05-29T12:03:08;98301.02;;;28.44;23.55
61898;BME280;47850;50.274;18.908;2023-05-29T12:05:47;98295.45;;;28.29;23.99
61898;BME280;47850;50.274;18.908;2023-05-29T12:08:16;98289.98;;;28.16;24.05
61898;BME280;47850;50.274;18.908;2023-05-29T12:10:49;98289.41;;;28.05;23.86
61898;BME280;47850;50.274;18.908;2023-05-29T12:13:20;98292.20;;;28.02;23.98
61898;BME280;47850;50.274;18.908;2023-05-29T12:15:49;98288.34;;;27.99;24.48
61898;BME280;47850;50.274;18.908;2023-05-29T12:18:20;98284.08;;;28.26;24.55
61898;BME280;47850;50.274;18.908;2023-05-29T12:20:48;98283.66;;;28.56;24.25
61898;BME280;47850;50.274;18.908;2023-05-29T12:23:18;98288.22;;;28.92;23.90
61898;BME280;47850;50.274;18.908;2023-05-29T12:25:48;98285.98;;;29.25;23.30
61898;BME280;47850;50.274;18.908;2023-05-29T12:28:20;98285.37;;;29.43;22.87
61898;BME280;47850;50.274;18.908;2023-05-29T12:30:49;98282.12;;;29.63;22.55
61898;BME280;47850;50.274;18.908;2023-05-29T12:33:28;98273.94;;;29.71;22.28
61898;BME280;47850;50.274;18.908;2023-05-29T12:36:04;98275.11;;;29.92;22.16
61898;BME280;47850;50.274;18.908;2023-05-29T12:38:49;98273.64;;;30.09;21.89
61898;BME280;47850;50.274;18.908;2023-05-29T12:41:44;98263.78;;;30.10;21.87
61898;BME280;47850;50.274;18.908;2023-05-29T12:44:12;98265.05;;;30.26;22.07
61898;BME280;47850;50.274;18.908;2023-05-29T12:46:41;98262.95;;;30.31;21.81
61898;BME280;47850;50.274;18.908;2023-05-29T12:49:16;98266.05;;;30.42;22.16
61898;BME280;47850;50.274;18.908;2023-05-29T12:51:47;98269.19;;;30.69;21.71
61898;BME280;47850;50.274;18.908;2023-05-29T12:54:16;98269.25;;;30.75;21.89
61898;BME280;47850;50.274;18.908;2023-05-29T12:56:44;98265.66;;;30.79;22.56
61898;BME280;47850;50.274;18.908;2023-05-29T12:59:13;98260.86;;;31.13;22.70
61898;BME280;47850;50.274;18.908;2023-05-29T13:01:43;98262.90;;;31.44;22.04
61898;BME280;47850;50.274;18.908;2023-05-29T13:04:11;98262.84;;;31.66;21.98
61898;BME280;47850;50.274;18.908;2023-05-29T13:06:40;98259.69;;;31.79;21.41
61898;BME280;47850;50.274;18.908;2023-05-29T13:09:08;98256.77;;;31.96;21.17
61898;BME280;47850;50.274;18.908;2023-05-29T13:11:36;98251.55;;;32.16;20.67
61898;BME280;47850;50.274;18.908;2023-05-29T13:14:04;98252.67;;;32.41;20.67
61898;BME280;47850;50.274;18.908;2023-05-29T13:16:33;98248.67;;;32.61;20.23
61898;BME280;47850;50.274;18.908;2023-05-29T13:19:01;98251.29;;;32.80;20.17
61898;BME280;47850;50.274;18.908;2023-05-29T13:21:29;98247.88;;;32.99;20.03
61898;BME280;47850;50.274;18.908;2023-05-29T13:23:57;98247.05;;;33.40;20.07
61898;BME280;47850;50.274;18.908;2023-05-29T13:26:24;98240.65;;;34.00;19.01
61898;BME280;47850;50.274;18.908;2023-05-29T13:28:53;98237.77;;;34.54;18.67
61898;BME280;47850;50.274;18.908;2023-05-29T13:31:21;98235.58;;;35.00;18.61
61898;BME280;47850;50.274;18.908;2023-05-29T13:33:49;98235.64;;;35.78;17.93